Terminal Aerodrome Forecast
Issued by NWS

Home | Current Version | Previous Version | Text Only | Print | Product List | Glossary On
Versions: 1 2 3 4 5 6 7 8 9 10 11 12 13 14
000
FTUS45 KTFX 271753
TAFBZN
TAF
KBZN 271753Z 2718/2818 VRB06KT P6SM SCT060 BKN090
     FM272100 29007KT P6SM VCTS SCT040 BKN070CB
      TEMPO 2722/2802 TSRA BKN040CB
     FM280500 19005KT P6SM SCT050 BKN080
     FM281500 32006KT P6SM VCSH BKN060=

USA.gov is the U.S. government's official web portal to all federal, state and local government web resources and services.